createdAt,value
2017-09-22T00:00:52.245Z,10.30
2017-09-22T00:03:20.786Z,10.20
2017-09-22T00:05:48.473Z,10.20
2017-09-22T00:08:16.189Z,10.30
2017-09-22T00:10:43.894Z,10.10
2017-09-22T00:13:11.570Z,10.20
2017-09-22T00:15:40.012Z,9.90
2017-09-22T00:18:07.728Z,9.80
2017-09-22T00:20:36.117Z,9.80
2017-09-22T00:23:03.802Z,9.80
2017-09-22T00:25:31.527Z,9.80
2017-09-22T00:28:00.035Z,9.70
2017-09-22T00:30:27.688Z,9.70
2017-09-22T00:32:55.450Z,9.40
2017-09-22T00:35:23.898Z,9.60
2017-09-22T00:37:51.553Z,9.60
2017-09-22T00:40:19.251Z,9.20
2017-09-22T00:42:47.725Z,9.10
2017-09-22T00:45:16.250Z,8.80
2017-09-22T00:47:43.989Z,8.80
2017-09-22T00:50:11.655Z,8.70
2017-09-22T00:52:39.278Z,8.60
2017-09-22T00:55:07.011Z,8.60
2017-09-22T00:57:34.704Z,8.50
2017-09-22T01:00:02.822Z,8.50
2017-09-22T01:02:30.493Z,8.60
2017-09-22T01:04:58.231Z,8.50
2017-09-22T01:07:25.904Z,8.40
2017-09-22T01:09:54.347Z,8.20
2017-09-22T01:12:22.083Z,8.20
2017-09-22T01:14:49.749Z,8.20
2017-09-22T01:17:17.691Z,8.10
2017-09-22T01:19:45.385Z,8.40
2017-09-22T01:22:13.057Z,8.40
2017-09-22T01:24:40.732Z,8.60
2017-09-22T01:27:08.451Z,8.40
2017-09-22T01:29:36.134Z,8.60
2017-09-22T01:32:03.816Z,8.80
2017-09-22T01:34:31.520Z,8.50
2017-09-22T01:36:59.156Z,8.30
2017-09-22T01:39:26.874Z,8.50
2017-09-22T01:41:54.539Z,8.50
2017-09-22T01:44:22.166Z,8.50
2017-09-22T01:46:50.566Z,8.10
2017-09-22T01:49:18.335Z,8.00
2017-09-22T01:51:46.049Z,8.10
2017-09-22T01:54:14.559Z,8.60
2017-09-22T01:56:42.342Z,8.50
2017-09-22T01:59:10.015Z,8.60
2017-09-22T02:01:37.700Z,8.20
2017-09-22T02:04:06.055Z,8.10
2017-09-22T02:06:34.260Z,8.50
2017-09-22T02:09:02.376Z,8.50
2017-09-22T02:11:30.153Z,8.70
2017-09-22T02:13:57.808Z,8.50
2017-09-22T02:16:25.468Z,8.60
2017-09-22T02:18:53.936Z,8.20
2017-09-22T02:21:22.351Z,8.50
2017-09-22T02:23:49.992Z,8.50
2017-09-22T02:26:17.754Z,8.40
2017-09-22T02:28:46.183Z,8.20
2017-09-22T02:31:13.853Z,8.10
2017-09-22T02:33:41.511Z,8.20
2017-09-22T02:36:09.239Z,8.00
2017-09-22T02:38:36.968Z,7.90
2017-09-22T02:41:05.460Z,8.00
2017-09-22T02:43:33.867Z,8.10
2017-09-22T02:46:02.500Z,8.10
2017-09-22T02:48:30.222Z,8.10
2017-09-22T02:50:58.181Z,8.20
2017-09-22T02:53:25.922Z,8.50
2017-09-22T02:55:53.588Z,8.70
2017-09-22T02:58:22.034Z,8.60
2017-09-22T03:00:49.773Z,8.60
2017-09-22T03:03:17.448Z,8.50
2017-09-22T03:05:45.121Z,8.50
2017-09-22T03:08:12.845Z,8.30
2017-09-22T03:10:40.593Z,8.30
2017-09-22T03:13:08.964Z,8.30
2017-09-22T03:15:37.486Z,8.10
2017-09-22T03:18:05.295Z,8.10
2017-09-22T03:20:33.731Z,8.50
2017-09-22T03:23:01.466Z,8.50
2017-09-22T03:25:29.912Z,8.20
2017-09-22T03:27:57.565Z,8.10
2017-09-22T03:30:25.189Z,8.20
2017-09-22T03:32:52.900Z,8.50
2017-09-22T03:35:21.325Z,8.90
2017-09-22T03:37:48.978Z,8.90
2017-09-22T03:40:16.677Z,9.00
2017-09-22T03:42:44.347Z,8.60
2017-09-22T03:45:12.065Z,8.60
2017-09-22T03:50:13.136Z,8.40
2017-09-22T03:52:40.906Z,8.30
2017-09-22T03:55:08.633Z,8.70
2017-09-22T03:57:36.271Z,8.70
2017-09-22T04:00:04.223Z,8.60
2017-09-22T04:02:32.250Z,8.50
2017-09-22T04:04:59.919Z,8.50
2017-09-22T04:07:28.335Z,8.30
2017-09-22T04:09:56.015Z,8.20
2017-09-22T04:12:23.656Z,8.30
2017-09-22T04:14:51.392Z,8.40
2017-09-22T04:17:19.893Z,8.50
2017-09-22T04:19:47.519Z,8.50
2017-09-22T04:22:15.216Z,8.60
2017-09-22T04:24:43.113Z,8.70
2017-09-22T04:27:10.803Z,8.40
2017-09-22T04:29:38.486Z,8.30
2017-09-22T04:32:06.206Z,8.20
2017-09-22T04:34:33.845Z,8.40
2017-09-22T04:37:01.544Z,8.50
2017-09-22T04:39:29.233Z,8.60
2017-09-22T04:41:57.708Z,8.40
2017-09-22T04:44:25.400Z,8.40
2017-09-22T04:46:53.049Z,8.40
2017-09-22T04:49:21.724Z,8.40
2017-09-22T04:51:49.366Z,8.40
2017-09-22T04:54:17.820Z,8.40
2017-09-22T04:56:45.529Z,8.40
2017-09-22T04:59:14.037Z,8.20
2017-09-22T05:01:41.740Z,8.20
2017-09-22T05:04:09.408Z,8.00
2017-09-22T05:06:37.082Z,8.30
2017-09-22T05:09:05.732Z,8.20
2017-09-22T05:11:33.376Z,8.20
2017-09-22T05:14:01.825Z,8.60
2017-09-22T05:16:29.563Z,8.60
2017-09-22T05:18:57.244Z,8.60
2017-09-22T05:21:24.967Z,8.90
2017-09-22T05:23:52.654Z,8.80
2017-09-22T05:26:20.303Z,9.10
2017-09-22T05:28:47.971Z,8.70
2017-09-22T05:31:15.707Z,9.00
2017-09-22T05:33:43.394Z,9.20
2017-09-22T05:36:11.128Z,9.10
2017-09-22T05:38:39.541Z,9.00
2017-09-22T05:41:07.202Z,9.00
2017-09-22T05:43:34.887Z,9.10
2017-09-22T05:46:02.626Z,9.20
2017-09-22T05:48:30.298Z,9.40
2017-09-22T05:50:58.106Z,9.10
2017-09-22T05:53:26.531Z,8.80
2017-09-22T05:55:54.485Z,8.80
2017-09-22T05:58:23.108Z,8.50
2017-09-22T06:00:51.116Z,8.70
2017-09-22T06:03:18.974Z,8.70
2017-09-22T06:05:46.747Z,8.70
2017-09-22T06:08:15.176Z,8.90
2017-09-22T06:10:42.827Z,8.90
2017-09-22T06:13:10.695Z,9.20
2017-09-22T06:15:38.375Z,9.50
2017-09-22T06:18:06.406Z,9.70
2017-09-22T06:20:34.177Z,9.50
2017-09-22T06:23:01.927Z,9.40
2017-09-22T06:25:30.789Z,9.10
2017-09-22T06:27:58.576Z,9.10
2017-09-22T06:30:26.251Z,9.10
2017-09-22T06:32:54.777Z,9.50
2017-09-22T06:35:22.422Z,9.40
2017-09-22T06:37:50.195Z,9.40
2017-09-22T06:40:17.843Z,9.40
2017-09-22T06:42:45.514Z,9.50
2017-09-22T06:45:13.261Z,9.90
2017-09-22T06:47:40.998Z,10.20
2017-09-22T06:50:08.799Z,10.30
2017-09-22T06:52:36.515Z,10.20
2017-09-22T06:55:04.191Z,10.30
2017-09-22T06:57:31.855Z,10.90
2017-09-22T06:59:59.568Z,11.10
2017-09-22T07:02:27.540Z,11.30
2017-09-22T07:04:55.289Z,10.90
2017-09-22T07:07:23.281Z,10.50
2017-09-22T07:09:50.997Z,10.50
2017-09-22T07:12:18.729Z,10.50
2017-09-22T07:14:46.453Z,10.50
2017-09-22T07:17:14.332Z,10.60
2017-09-22T07:19:42.006Z,11.40
2017-09-22T07:22:09.756Z,11.90
2017-09-22T07:24:37.393Z,12.20
2017-09-22T07:27:05.506Z,12.20
2017-09-22T07:29:33.256Z,12.00
2017-09-22T07:32:00.919Z,11.50
2017-09-22T07:34:28.551Z,11.60
2017-09-22T07:36:56.346Z,12.20
2017-09-22T07:39:24.095Z,12.50
2017-09-22T07:41:51.784Z,12.50
2017-09-22T07:44:19.649Z,12.70
2017-09-22T07:46:47.353Z,12.60
2017-09-22T07:49:15.048Z,12.70
2017-09-22T07:51:42.739Z,12.40
2017-09-22T07:54:10.500Z,12.90
2017-09-22T07:56:38.191Z,12.60
2017-09-22T07:59:07.105Z,12.50
2017-09-22T08:01:34.847Z,12.50
2017-09-22T08:04:02.606Z,12.50
2017-09-22T08:06:30.384Z,12.40
2017-09-22T08:08:58.870Z,12.60
2017-09-22T08:11:27.354Z,12.60
2017-09-22T08:13:55.858Z,12.60
2017-09-22T08:16:23.562Z,12.60
2017-09-22T08:18:53.870Z,12.70
2017-09-22T08:21:22.605Z,12.70
2017-09-22T08:23:55.770Z,12.80
2017-09-22T08:26:23.714Z,12.80
2017-09-22T08:28:51.496Z,12.70
2017-09-22T08:31:19.286Z,12.90
2017-09-22T08:33:47.182Z,13.20
2017-09-22T08:36:17.216Z,13.20
2017-09-22T08:38:45.674Z,13.40
2017-09-22T08:41:13.976Z,13.40
2017-09-22T08:43:42.422Z,13.20
2017-09-22T08:46:11.048Z,13.20
2017-09-22T08:48:38.770Z,13.40
2017-09-22T08:51:06.515Z,13.40
2017-09-22T08:53:34.178Z,13.40
2017-09-22T08:56:02.154Z,13.40
2017-09-22T08:58:29.915Z,13.50
2017-09-22T09:00:57.695Z,13.50
2017-09-22T09:03:31.114Z,13.50
2017-09-22T09:06:00.871Z,13.50
2017-09-22T09:08:29.649Z,13.40
2017-09-22T09:10:58.191Z,13.40
2017-09-22T09:13:34.382Z,13.40
2017-09-22T09:16:02.161Z,13.40
2017-09-22T09:18:29.888Z,13.30
2017-09-22T09:20:57.574Z,13.40
2017-09-22T09:23:26.098Z,13.80
2017-09-22T09:25:54.022Z,13.80
2017-09-22T09:28:22.808Z,14.00
2017-09-22T09:30:51.521Z,14.00
2017-09-22T09:33:19.864Z,13.70
2017-09-22T09:35:47.631Z,13.60
2017-09-22T09:38:15.650Z,13.60
2017-09-22T09:40:55.781Z,13.70
2017-09-22T09:43:24.058Z,13.60
2017-09-22T09:45:57.063Z,13.70
2017-09-22T09:48:25.269Z,13.90
2017-09-22T09:50:52.988Z,13.60
2017-09-22T09:53:21.613Z,13.60
2017-09-22T09:55:49.445Z,13.80
2017-09-22T09:58:17.156Z,13.50
2017-09-22T10:00:46.145Z,13.50
2017-09-22T10:03:15.847Z,13.40
2017-09-22T10:05:43.515Z,13.40
2017-09-22T10:08:11.290Z,13.30
2017-09-22T10:10:40.730Z,13.20
2017-09-22T10:13:09.132Z,13.10
2017-09-22T10:15:37.807Z,13.20
2017-09-22T10:18:06.328Z,13.30
2017-09-22T10:20:34.182Z,13.30
2017-09-22T10:23:09.119Z,13.40
2017-09-22T10:25:37.703Z,13.60
2017-09-22T10:28:13.725Z,13.60
2017-09-22T10:30:41.681Z,13.90
2017-09-22T10:33:10.272Z,14.00
2017-09-22T10:35:38.865Z,14.00
2017-09-22T10:38:06.576Z,14.10
2017-09-22T10:40:34.305Z,13.90
2017-09-22T10:43:02.110Z,13.80
2017-09-22T10:45:30.660Z,13.80
2017-09-22T10:47:58.368Z,13.80
2017-09-22T10:50:25.991Z,13.70
2017-09-22T10:52:57.532Z,13.80
2017-09-22T10:55:25.318Z,13.80
2017-09-22T10:57:53.992Z,13.80
2017-09-22T11:00:22.792Z,13.60
2017-09-22T11:02:50.499Z,13.50
2017-09-22T11:05:18.252Z,13.50
2017-09-22T11:10:18.933Z,13.60
2017-09-22T11:12:46.850Z,13.60
2017-09-22T11:15:14.521Z,13.50
2017-09-22T11:17:42.227Z,13.50
2017-09-22T11:20:09.913Z,13.60
2017-09-22T11:22:37.633Z,13.60
2017-09-22T11:25:06.220Z,13.60
2017-09-22T11:27:33.989Z,13.60
2017-09-22T11:30:02.478Z,13.70
2017-09-22T11:32:30.163Z,13.70
2017-09-22T11:34:57.924Z,13.70
2017-09-22T11:37:25.639Z,13.70
2017-09-22T11:39:53.341Z,13.80
2017-09-22T11:42:21.827Z,13.90
2017-09-22T11:44:49.486Z,13.90
2017-09-22T11:47:17.152Z,13.90
2017-09-22T11:49:44.916Z,13.90
2017-09-22T11:52:12.702Z,13.90
2017-09-22T11:54:40.423Z,14.00
2017-09-22T11:57:08.247Z,14.00
2017-09-22T11:59:36.036Z,14.00
2017-09-22T12:02:04.223Z,14.00
2017-09-22T12:04:32.092Z,14.00
2017-09-22T12:07:00.576Z,14.10
2017-09-22T12:09:29.079Z,14.20
2017-09-22T12:11:56.825Z,14.20
2017-09-22T12:14:25.341Z,14.00
2017-09-22T12:16:53.980Z,14.10
2017-09-22T12:19:22.477Z,14.00
2017-09-22T12:21:50.249Z,14.00
2017-09-22T12:24:18.701Z,14.00
2017-09-22T12:26:46.397Z,14.00
2017-09-22T12:29:14.954Z,13.90
2017-09-22T12:31:42.615Z,13.90
2017-09-22T12:34:10.291Z,13.90
2017-09-22T12:36:38.844Z,13.80
2017-09-22T12:39:07.183Z,13.80
2017-09-22T12:41:34.909Z,13.60
2017-09-22T12:44:03.134Z,13.60
2017-09-22T12:46:30.848Z,13.60
2017-09-22T12:48:59.343Z,13.40
2017-09-22T12:51:27.915Z,13.90
2017-09-22T12:53:55.659Z,13.80
2017-09-22T12:56:23.509Z,13.80
2017-09-22T12:58:51.273Z,13.40
2017-09-22T13:01:19.176Z,13.30
2017-09-22T13:03:47.035Z,13.20
2017-09-22T13:06:16.360Z,13.20
2017-09-22T13:08:44.089Z,13.30
2017-09-22T13:11:11.875Z,13.20
2017-09-22T13:13:39.617Z,13.30
2017-09-22T13:16:07.407Z,13.30
2017-09-22T13:18:35.900Z,13.60
2017-09-22T13:21:04.448Z,13.80
2017-09-22T13:23:33.024Z,13.80
2017-09-22T13:26:02.188Z,13.80
2017-09-22T13:28:30.009Z,13.70
2017-09-22T13:30:58.641Z,13.60
2017-09-22T13:33:26.348Z,13.60
2017-09-22T13:35:54.331Z,13.60
2017-09-22T13:38:22.846Z,13.60
2017-09-22T13:40:50.675Z,13.60
2017-09-22T13:43:18.473Z,13.60
2017-09-22T13:45:47.157Z,13.60
2017-09-22T13:48:15.693Z,13.60
2017-09-22T13:50:43.433Z,13.60
2017-09-22T13:53:11.464Z,13.90
2017-09-22T13:55:39.534Z,13.80
2017-09-22T13:58:07.287Z,13.70
2017-09-22T14:00:35.417Z,13.70
2017-09-22T14:03:03.101Z,13.80
2017-09-22T14:05:32.763Z,13.70
2017-09-22T14:08:01.214Z,13.70
2017-09-22T14:13:02.022Z,13.70
2017-09-22T14:15:29.899Z,13.80
2017-09-22T14:17:57.646Z,13.80
2017-09-22T14:20:25.322Z,13.80
2017-09-22T14:22:54.142Z,13.80
2017-09-22T14:25:22.035Z,13.80
2017-09-22T14:27:49.797Z,13.80
2017-09-22T14:30:17.484Z,13.90
2017-09-22T14:32:45.246Z,14.00
2017-09-22T14:35:13.142Z,14.00
2017-09-22T14:37:40.892Z,13.90
2017-09-22T14:40:08.921Z,13.90
2017-09-22T14:42:36.623Z,13.90
2017-09-22T14:45:06.201Z,13.90
2017-09-22T14:47:34.090Z,14.00
2017-09-22T14:50:02.482Z,13.90
2017-09-22T14:52:30.336Z,13.90
2017-09-22T14:54:58.101Z,13.90
2017-09-22T14:57:25.922Z,13.90
2017-09-22T14:59:53.735Z,14.00
2017-09-22T15:02:21.578Z,14.00
2017-09-22T15:04:49.299Z,14.00
2017-09-22T15:07:16.985Z,13.90
2017-09-22T15:09:44.710Z,14.00
2017-09-22T15:12:12.412Z,14.00
2017-09-22T15:14:40.938Z,14.10
2017-09-22T15:17:09.725Z,14.10
2017-09-22T15:19:37.496Z,14.00
2017-09-22T15:22:05.307Z,14.10
2017-09-22T15:24:32.970Z,14.20
2017-09-22T15:27:00.670Z,14.50
2017-09-22T15:29:28.353Z,14.50
2017-09-22T15:31:56.133Z,14.60
2017-09-22T15:34:24.015Z,14.10
2017-09-22T15:36:51.754Z,14.00
2017-09-22T15:39:19.487Z,13.80
2017-09-22T15:41:47.138Z,13.80
2017-09-22T15:44:15.270Z,13.70
2017-09-22T15:46:42.990Z,13.70
2017-09-22T15:49:11.414Z,13.40
2017-09-22T15:51:39.220Z,13.40
2017-09-22T15:54:07.018Z,13.30
2017-09-22T15:56:35.479Z,13.20
2017-09-22T15:59:03.182Z,13.20
2017-09-22T16:01:30.925Z,13.20
2017-09-22T16:03:59.396Z,13.20
2017-09-22T16:06:29.274Z,13.10
2017-09-22T16:08:56.928Z,13.10
2017-09-22T16:11:24.696Z,13.10
2017-09-22T16:13:52.664Z,13.00
2017-09-22T16:16:20.501Z,12.90
2017-09-22T16:18:48.328Z,12.80
2017-09-22T16:21:16.107Z,12.90
2017-09-22T16:23:43.819Z,13.00
2017-09-22T16:26:12.573Z,12.90
2017-09-22T16:28:40.260Z,12.80
2017-09-22T16:31:08.692Z,12.90
2017-09-22T16:33:38.311Z,13.20
2017-09-22T16:36:07.788Z,13.40
2017-09-22T16:38:36.096Z,13.40
2017-09-22T16:41:04.481Z,13.20
2017-09-22T16:43:32.566Z,13.10
2017-09-22T16:46:00.393Z,12.90
2017-09-22T16:48:28.908Z,13.10
2017-09-22T16:50:57.251Z,13.30
2017-09-22T16:53:25.126Z,13.20
2017-09-22T16:55:54.232Z,12.70
2017-09-22T16:58:23.896Z,12.80
2017-09-22T17:00:52.742Z,12.40
2017-09-22T17:03:22.239Z,12.40
2017-09-22T17:05:50.983Z,12.50
2017-09-22T17:08:18.748Z,12.70
2017-09-22T17:10:47.160Z,12.50
2017-09-22T17:13:16.580Z,12.30
2017-09-22T17:15:44.950Z,12.50
2017-09-22T17:18:12.833Z,12.40
2017-09-22T17:20:41.154Z,12.20
2017-09-22T17:23:09.792Z,12.10
2017-09-22T17:25:38.172Z,12.00
2017-09-22T17:28:06.314Z,12.00
2017-09-22T17:30:36.346Z,11.90
2017-09-22T17:33:04.636Z,12.10
2017-09-22T17:35:33.681Z,12.20
2017-09-22T17:38:02.335Z,12.50
2017-09-22T17:40:30.124Z,12.50
2017-09-22T17:42:57.813Z,12.40
2017-09-22T17:45:25.546Z,12.50
2017-09-22T17:47:53.256Z,12.00
2017-09-22T17:50:20.992Z,12.20
2017-09-22T17:52:48.688Z,12.00
2017-09-22T17:55:16.392Z,12.00
2017-09-22T17:57:44.099Z,12.20
2017-09-22T18:00:11.751Z,12.00
2017-09-22T18:02:39.508Z,12.00
2017-09-22T18:05:07.627Z,12.00
2017-09-22T18:07:35.377Z,11.80
2017-09-22T18:10:03.112Z,11.60
2017-09-22T18:12:30.853Z,11.40
2017-09-22T18:14:59.736Z,11.30
2017-09-22T18:17:27.414Z,11.30
2017-09-22T18:19:55.119Z,11.30
2017-09-22T18:22:24.573Z,11.60
2017-09-22T18:24:52.285Z,11.50
2017-09-22T18:27:20.321Z,11.30
2017-09-22T18:29:48.269Z,11.20
2017-09-22T18:32:16.061Z,11.20
2017-09-22T18:34:43.810Z,11.50
2017-09-22T18:37:12.135Z,11.30
2017-09-22T18:39:39.825Z,11.20
2017-09-22T18:42:08.644Z,11.10
2017-09-22T18:44:36.450Z,11.10
2017-09-22T18:47:04.277Z,11.00
2017-09-22T18:49:32.446Z,11.00
2017-09-22T18:52:00.773Z,10.90
2017-09-22T18:54:28.580Z,10.90
2017-09-22T18:56:56.602Z,10.90
2017-09-22T18:59:25.311Z,11.00
2017-09-22T19:01:53.046Z,11.20
2017-09-22T19:04:21.012Z,11.00
2017-09-22T19:06:48.738Z,10.80
2017-09-22T19:09:16.408Z,10.60
2017-09-22T19:11:44.167Z,10.80
2017-09-22T19:14:11.923Z,10.70
2017-09-22T19:16:40.419Z,10.60
2017-09-22T19:19:08.282Z,10.60
2017-09-22T19:21:36.247Z,10.60
2017-09-22T19:24:04.804Z,10.60
2017-09-22T19:26:32.539Z,10.60
2017-09-22T19:29:00.342Z,10.50
2017-09-22T19:31:28.992Z,10.40
2017-09-22T19:33:56.753Z,10.40
2017-09-22T19:36:24.534Z,10.40
2017-09-22T19:38:52.277Z,10.20
2017-09-22T19:41:20.045Z,10.10
2017-09-22T19:43:47.835Z,10.10
2017-09-22T19:46:15.538Z,10.40
2017-09-22T19:48:44.116Z,10.40
2017-09-22T19:51:11.823Z,10.30
2017-09-22T19:53:39.612Z,10.30
2017-09-22T19:56:07.360Z,10.10
2017-09-22T19:58:35.021Z,10.00
2017-09-22T20:01:03.362Z,9.90
2017-09-22T20:03:31.057Z,9.80
2017-09-22T20:05:58.772Z,9.80
2017-09-22T20:08:26.510Z,9.80
2017-09-22T20:10:55.380Z,9.80
2017-09-22T20:13:23.984Z,9.70
2017-09-22T20:15:52.022Z,9.70
2017-09-22T20:18:20.314Z,9.70
2017-09-22T20:20:48.520Z,9.80
2017-09-22T20:23:16.453Z,9.70
2017-09-22T20:25:45.811Z,9.60
2017-09-22T20:28:15.301Z,9.70
2017-09-22T20:30:43.238Z,9.60
2017-09-22T20:33:12.412Z,9.60
2017-09-22T20:35:41.759Z,9.70
2017-09-22T20:38:11.324Z,9.70
2017-09-22T20:40:39.212Z,9.70
2017-09-22T20:43:06.935Z,9.80
2017-09-22T20:45:35.216Z,9.90
2017-09-22T20:48:02.950Z,9.90
2017-09-22T20:50:30.878Z,9.90
2017-09-22T20:53:00.139Z,9.80
2017-09-22T20:55:28.168Z,9.70
2017-09-22T20:57:56.078Z,9.70
2017-09-22T21:00:24.375Z,9.60
2017-09-22T21:02:52.880Z,9.60
2017-09-22T21:05:20.875Z,9.50
2017-09-22T21:07:48.644Z,9.50
2017-09-22T21:10:17.137Z,9.60
2017-09-22T21:12:44.896Z,9.60
2017-09-22T21:15:13.424Z,9.70
2017-09-22T21:17:41.161Z,9.60
2017-09-22T21:20:09.363Z,9.80
2017-09-22T21:22:37.073Z,9.80
2017-09-22T21:25:04.790Z,9.90
2017-09-22T21:27:32.659Z,9.70
2017-09-22T21:30:00.420Z,9.50
2017-09-22T21:32:28.151Z,9.60
2017-09-22T21:34:56.002Z,9.70
2017-09-22T21:37:23.782Z,10.00
2017-09-22T21:39:52.304Z,10.00
2017-09-22T21:42:20.407Z,10.00
2017-09-22T21:44:48.347Z,10.00
2017-09-22T21:47:16.050Z,9.60
2017-09-22T21:49:43.722Z,9.40
2017-09-22T21:52:12.194Z,9.30
2017-09-22T21:54:39.880Z,9.30
2017-09-22T21:57:07.572Z,9.30
2017-09-22T21:59:35.277Z,9.20
2017-09-22T22:02:03.752Z,9.60
2017-09-22T22:04:37.036Z,9.50
2017-09-22T22:07:10.301Z,9.70
2017-09-22T22:09:38.076Z,9.70
2017-09-22T22:12:07.122Z,9.60
2017-09-22T22:14:34.926Z,9.40
2017-09-22T22:17:02.707Z,9.40
2017-09-22T22:19:30.371Z,9.30
2017-09-22T22:21:58.044Z,9.50
2017-09-22T22:24:25.906Z,9.60
2017-09-22T22:26:54.417Z,9.50
2017-09-22T22:29:22.057Z,9.90
2017-09-22T22:31:49.749Z,9.80
2017-09-22T22:34:17.412Z,9.70
2017-09-22T22:36:45.092Z,9.80
2017-09-22T22:39:12.838Z,9.90
2017-09-22T22:41:40.500Z,9.70
2017-09-22T22:44:08.196Z,9.40
2017-09-22T22:46:36.720Z,9.40
2017-09-22T22:49:04.467Z,9.40
2017-09-22T22:51:32.236Z,9.30
2017-09-22T22:54:00.173Z,9.20
2017-09-22T22:56:28.666Z,9.20
2017-09-22T22:58:56.383Z,9.10
2017-09-22T23:01:24.042Z,9.20
2017-09-22T23:03:51.694Z,9.20
2017-09-22T23:06:19.304Z,9.20
2017-09-22T23:08:47.724Z,9.30
2017-09-22T23:11:15.439Z,9.30
2017-09-22T23:13:43.883Z,9.30
2017-09-22T23:16:11.690Z,9.30
2017-09-22T23:18:39.340Z,9.30
2017-09-22T23:21:07.431Z,9.40
2017-09-22T23:23:35.144Z,9.70
2017-09-22T23:26:02.843Z,9.60
2017-09-22T23:28:31.241Z,9.50
2017-09-22T23:30:59.657Z,9.90
2017-09-22T23:33:27.360Z,9.90
2017-09-22T23:35:55.882Z,10.10
2017-09-22T23:38:23.578Z,10.10
2017-09-22T23:40:51.287Z,9.60
2017-09-22T23:43:19.013Z,9.40
2017-09-22T23:45:46.727Z,9.30
2017-09-22T23:48:15.203Z,9.30
2017-09-22T23:50:42.863Z,9.30
2017-09-22T23:53:11.538Z,9.40
2017-09-22T23:55:39.253Z,9.40
2017-09-22T23:58:07.000Z,9.30
